Time;durP1;ratioP1;P1;durP2;ratioP2;P2;SDS_P1;SDS_P2;PMS_P1;PMS_P2;Temp;Humidity;BMP_temperature;BMP_pressure;BME280_temperature;BME280_humidity;BME280_pressure;Samples;Min_cycle;Max_cycle;Signal;HPM_P1;HPM_P2
2022/01/08 00:00:39;;;;;;;;;;;20.30;41.50;;;;;;5102900;28;19987;-48
2022/01/08 00:03:06;;;;;;;;;;;20.30;41.50;;;;;;5077621;28;20026;-48
2022/01/08 00:05:33;;;;;;;;;;;20.30;41.60;;;;;;5089992;28;19959;-45
2022/01/08 00:08:00;;;;;;;;;;;20.30;41.50;;;;;;5076936;28;19928;-46
2022/01/08 00:10:27;;;;;;;;;;;20.30;41.50;;;;;;5104879;28;19928;-48
2022/01/08 00:12:56;;;;;;;;;;;20.30;41.50;;;;;;5099996;28;19939;-47
2022/01/08 00:15:26;;;;;;;;;;;20.20;41.50;;;;;;5088847;28;20391;-46
2022/01/08 00:17:52;;;;;;;;;;;20.30;41.50;;;;;;5100680;28;19925;-46
2022/01/08 00:20:20;;;;;;;;;;;20.20;41.50;;;;;;5089720;28;20280;-48
2022/01/08 00:22:50;;;;;;;;;;;20.20;41.50;;;;;;5104350;28;19993;-44
2022/01/08 00:25:17;;;;;;;;;;;20.20;42.10;;;;;;5080201;28;19950;-43
2022/01/08 00:27:46;;;;;;;;;;;20.20;41.50;;;;;;5107753;27;19990;-48
2022/01/08 00:30:14;;;;;;;;;;;20.20;41.50;;;;;;5098377;28;19932;-48
2022/01/08 00:32:41;;;;;;;;;;;20.20;41.50;;;;;;5109346;27;19986;-47
2022/01/08 00:35:08;;;;;;;;;;;20.20;41.50;;;;;;5085028;28;20056;-48
2022/01/08 00:37:37;;;;;;;;;;;20.20;41.50;;;;;;5099172;28;20389;-44
2022/01/08 00:40:04;;;;;;;;;;;20.20;41.50;;;;;;5099649;28;19923;-49
2022/01/08 00:42:31;;;;;;;;;;;20.20;41.50;;;;;;5107039;27;19931;-45
2022/01/08 00:44:57;;;;;;;;;;;20.20;41.50;;;;;;5116163;28;19924;-45
2022/01/08 00:47:25;;;;;;;;;;;20.20;41.50;;;;;;5094043;27;19949;-45
2022/01/08 00:49:52;;;;;;;;;;;20.20;41.50;;;;;;5116496;28;19927;-44
2022/01/08 00:52:19;;;;;;;;;;;20.20;41.50;;;;;;5090507;28;19959;-51
2022/01/08 00:54:46;;;;;;;;;;;20.20;41.50;;;;;;5099048;28;19932;-48
2022/01/08 00:57:13;;;;;;;;;;;20.20;41.50;;;;;;5105203;27;19939;-47
2022/01/08 00:59:40;;;;;;;;;;;20.20;41.40;;;;;;5118228;27;20380;-47
2022/01/08 01:02:07;;;;;;;;;;;20.20;41.50;;;;;;5084158;27;20365;-44
2022/01/08 01:04:40;;;;;;;;;;;20.20;41.50;;;;;;5110101;28;19924;-45
2022/01/08 01:07:10;;;;;;;;;;;20.20;41.50;;;;;;5078263;28;19991;-42
2022/01/08 01:09:36;;;;;;;;;;;20.20;41.40;;;;;;5095750;28;19924;-42
2022/01/08 01:12:06;;;;;;;;;;;20.20;41.50;;;;;;5116991;28;19945;-43
2022/01/08 01:14:33;;;;;;;;;;;20.20;41.40;;;;;;5100217;28;19961;-47
2022/01/08 01:17:00;;;;;;;;;;;20.20;41.40;;;;;;5118096;28;19950;-44
2022/01/08 01:19:27;;;;;;;;;;;20.20;41.40;;;;;;5097683;28;19969;-43
2022/01/08 01:21:57;;;;;;;;;;;20.20;41.40;;;;;;5099992;28;20568;-47
2022/01/08 01:24:26;;;;;;;;;;;20.20;41.40;;;;;;5098277;28;20002;-46
2022/01/08 01:27:16;;;;;;;;;;;20.20;41.40;;;;;;5118192;28;19934;-43
2022/01/08 01:29:51;;;;;;;;;;;20.20;41.40;;;;;;5111610;28;19949;-48
2022/01/08 01:49:10;;;;;;;;;;;20.20;41.40;;;;;;5114814;28;20043;-43
2022/01/08 01:51:37;;;;;;;;;;;20.20;41.40;;;;;;5114993;28;20357;-46
2022/01/08 01:54:04;;;;;;;;;;;20.20;41.40;;;;;;5110623;28;19924;-43
2022/01/08 01:56:34;;;;;;;;;;;20.20;41.30;;;;;;5109321;28;19931;-52
2022/01/08 01:59:00;;;;;;;;;;;20.20;41.40;;;;;;5100478;28;19927;-43
2022/01/08 02:01:29;;;;;;;;;;;20.20;41.40;;;;;;5107214;28;19924;-47
2022/01/08 02:03:56;;;;;;;;;;;20.20;41.30;;;;;;5099186;28;19929;-44
2022/01/08 02:06:23;;;;;;;;;;;20.20;41.40;;;;;;5114323;28;19931;-49
2022/01/08 02:08:49;;;;;;;;;;;20.20;41.30;;;;;;5112458;28;19931;-46
2022/01/08 02:11:19;;;;;;;;;;;20.10;41.20;;;;;;5112412;28;19989;-46
2022/01/08 02:13:46;;;;;;;;;;;20.10;41.20;;;;;;5101549;28;19924;-45
2022/01/08 02:16:17;;;;;;;;;;;20.10;41.20;;;;;;5113748;28;20011;-44
2022/01/08 02:18:45;;;;;;;;;;;20.10;41.20;;;;;;5114327;28;19924;-46
2022/01/08 02:21:14;;;;;;;;;;;20.10;41.20;;;;;;5114336;28;19934;-47
2022/01/08 02:23:41;;;;;;;;;;;20.10;41.20;;;;;;5094867;28;19924;-46
2022/01/08 02:26:08;;;;;;;;;;;20.10;41.20;;;;;;5112278;28;19931;-44
2022/01/08 02:28:35;;;;;;;;;;;20.10;41.20;;;;;;5097514;28;20397;-46
2022/01/08 02:31:01;;;;;;;;;;;20.10;41.20;;;;;;5111246;28;19928;-46
2022/01/08 02:33:28;;;;;;;;;;;20.10;41.20;;;;;;5109048;28;19937;-42
2022/01/08 02:35:55;;;;;;;;;;;20.10;41.20;;;;;;5109430;28;19928;-46
2022/01/08 02:38:24;;;;;;;;;;;20.10;41.10;;;;;;5111247;28;19934;-45
2022/01/08 02:40:55;;;;;;;;;;;20.10;41.20;;;;;;5112698;28;19956;-47
2022/01/08 02:43:23;;;;;;;;;;;20.10;41.20;;;;;;5115522;28;20347;-46
2022/01/08 02:45:50;;;;;;;;;;;20.10;41.10;;;;;;5113523;28;19949;-42
2022/01/08 02:48:17;;;;;;;;;;;20.10;41.10;;;;;;5112053;28;19924;-43
2022/01/08 02:50:44;;;;;;;;;;;20.10;41.10;;;;;;5112224;28;19931;-47
2022/01/08 02:53:10;;;;;;;;;;;20.10;41.10;;;;;;5110184;28;19929;-47
2022/01/08 02:55:39;;;;;;;;;;;20.10;41.10;;;;;;5134462;27;19971;-44
2022/01/08 02:58:05;;;;;;;;;;;20.10;41.10;;;;;;5098864;28;19933;-46
2022/01/08 03:00:32;;;;;;;;;;;20.10;41.10;;;;;;5100154;28;19924;-46
2022/01/08 03:02:59;;;;;;;;;;;20.10;41.10;;;;;;5099091;28;19924;-42
2022/01/08 03:05:27;;;;;;;;;;;20.10;41.10;;;;;;5088440;28;19935;-44
2022/01/08 03:07:54;;;;;;;;;;;20.10;41.10;;;;;;5099139;28;19928;-47
2022/01/08 03:10:21;;;;;;;;;;;20.10;41.10;;;;;;5098606;28;19984;-46
2022/01/08 03:12:49;;;;;;;;;;;20.10;41.10;;;;;;5116729;28;19924;-42
2022/01/08 03:15:16;;;;;;;;;;;20.10;41.00;;;;;;5099104;28;19959;-43
2022/01/08 03:17:43;;;;;;;;;;;20.10;41.10;;;;;;5099395;28;19963;-49
2022/01/08 03:20:13;;;;;;;;;;;20.10;41.10;;;;;;5096013;28;20019;-46
2022/01/08 03:22:40;;;;;;;;;;;20.10;41.10;;;;;;5100250;28;19935;-42
2022/01/08 03:25:07;;;;;;;;;;;20.10;41.10;;;;;;5089067;28;19940;-44
2022/01/08 03:27:34;;;;;;;;;;;20.10;41.10;;;;;;5097656;28;20464;-44
2022/01/08 03:30:03;;;;;;;;;;;20.10;41.10;;;;;;5079617;28;19968;-46
2022/01/08 03:32:29;;;;;;;;;;;20.10;41.00;;;;;;5096434;28;19956;-43
2022/01/08 03:34:56;;;;;;;;;;;20.10;41.10;;;;;;5099574;28;19928;-46
2022/01/08 03:37:23;;;;;;;;;;;20.10;41.10;;;;;;5095657;28;20546;-47
2022/01/08 03:39:50;;;;;;;;;;;20.10;41.10;;;;;;5089899;28;20386;-45
2022/01/08 03:42:17;;;;;;;;;;;20.10;41.10;;;;;;5126713;27;19950;-45
2022/01/08 03:44:46;;;;;;;;;;;20.10;41.10;;;;;;5071317;28;19940;-44
2022/01/08 03:47:31;;;;;;;;;;;20.10;41.00;;;;;;5062935;28;19928;-46
2022/01/08 03:49:57;;;;;;;;;;;20.10;41.10;;;;;;5055320;28;19975;-43
2022/01/08 03:52:25;;;;;;;;;;;20.10;41.00;;;;;;5064582;28;19998;-48
2022/01/08 03:54:51;;;;;;;;;;;20.10;41.00;;;;;;5053811;28;19925;-47
2022/01/08 03:57:18;;;;;;;;;;;20.10;41.00;;;;;;5071275;28;19925;-46
2022/01/08 03:59:45;;;;;;;;;;;20.20;41.10;;;;;;5053867;28;20019;-44
2022/01/08 04:02:13;;;;;;;;;;;20.10;41.00;;;;;;5059167;28;19940;-43
2022/01/08 04:04:40;;;;;;;;;;;20.10;41.00;;;;;;5072548;28;20308;-46
2022/01/08 04:07:07;;;;;;;;;;;20.10;41.00;;;;;;5045475;28;19932;-44
2022/01/08 04:09:34;;;;;;;;;;;20.10;41.00;;;;;;5056035;28;19925;-49
2022/01/08 04:12:02;;;;;;;;;;;20.10;41.00;;;;;;5056643;28;19942;-44
2022/01/08 04:14:36;;;;;;;;;;;20.10;41.00;;;;;;5055724;28;19935;-50
2022/01/08 04:17:03;;;;;;;;;;;20.10;41.00;;;;;;5057500;28;19932;-45
2022/01/08 04:19:32;;;;;;;;;;;20.20;41.10;;;;;;5064542;28;19943;-45
2022/01/08 04:22:10;;;;;;;;;;;20.20;41.10;;;;;;5059644;28;19968;-46
2022/01/08 04:24:36;;;;;;;;;;;20.10;41.00;;;;;;5056181;28;19933;-45
2022/01/08 04:27:03;;;;;;;;;;;20.10;41.00;;;;;;5074420;28;19935;-44
2022/01/08 04:29:30;;;;;;;;;;;20.10;41.00;;;;;;5054641;28;19925;-42
2022/01/08 04:31:57;;;;;;;;;;;20.20;41.10;;;;;;5055699;28;19970;-46
2022/01/08 04:34:24;;;;;;;;;;;20.10;41.60;;;;;;5057075;28;19956;-44
2022/01/08 04:36:53;;;;;;;;;;;20.20;41.10;;;;;;5054727;28;19932;-44
2022/01/08 04:39:20;;;;;;;;;;;20.20;41.10;;;;;;5062922;28;19996;-46
2022/01/08 04:41:47;;;;;;;;;;;20.10;41.00;;;;;;5082934;28;19932;-42
2022/01/08 04:44:14;;;;;;;;;;;20.10;41.00;;;;;;5062411;28;20314;-44
2022/01/08 04:46:41;;;;;;;;;;;20.10;41.00;;;;;;5085780;28;19979;-47
2022/01/08 04:49:08;;;;;;;;;;;20.10;41.00;;;;;;5118148;28;19924;-45
2022/01/08 04:51:34;;;;;;;;;;;20.10;41.00;;;;;;5103281;28;19928;-42
2022/01/08 04:54:05;;;;;;;;;;;20.10;41.00;;;;;;5119130;28;19919;-43
2022/01/08 04:56:32;;;;;;;;;;;20.20;41.10;;;;;;5119160;28;19927;-43
2022/01/08 04:58:59;;;;;;;;;;;20.10;41.00;;;;;;5088230;28;19928;-45
2022/01/08 05:01:27;;;;;;;;;;;20.20;41.10;;;;;;5081253;28;20412;-43
2022/01/08 05:03:54;;;;;;;;;;;20.10;41.00;;;;;;5113669;28;19924;-47
2022/01/08 05:06:20;;;;;;;;;;;20.10;40.90;;;;;;5098675;28;19931;-47
2022/01/08 05:08:47;;;;;;;;;;;20.20;41.10;;;;;;5109540;28;20030;-43
2022/01/08 05:11:15;;;;;;;;;;;20.10;40.90;;;;;;5100673;28;19928;-45
2022/01/08 05:13:44;;;;;;;;;;;20.10;40.90;;;;;;5090349;28;19930;-46
2022/01/08 05:16:10;;;;;;;;;;;20.10;41.00;;;;;;5094162;28;19924;-45
2022/01/08 05:18:38;;;;;;;;;;;20.10;40.90;;;;;;5098261;28;19928;-43
2022/01/08 05:21:17;;;;;;;;;;;20.10;41.00;;;;;;5096044;28;19951;-44
2022/01/08 05:23:44;;;;;;;;;;;20.10;41.00;;;;;;5091359;28;20015;-46
2022/01/08 05:26:11;;;;;;;;;;;20.10;41.00;;;;;;5100864;28;20015;-43
2022/01/08 05:28:41;;;;;;;;;;;20.20;41.10;;;;;;5099576;28;19951;-46
2022/01/08 05:31:08;;;;;;;;;;;20.10;40.90;;;;;;5100044;28;19928;-42
2022/01/08 05:33:35;;;;;;;;;;;20.10;40.90;;;;;;5114583;27;20373;-47
2022/01/08 05:36:05;;;;;;;;;;;20.10;40.90;;;;;;5097009;28;19924;-46
2022/01/08 05:38:31;;;;;;;;;;;20.10;40.90;;;;;;5097112;28;19954;-50
2022/01/08 05:40:58;;;;;;;;;;;20.10;40.90;;;;;;5093562;28;19928;-47
2022/01/08 05:43:25;;;;;;;;;;;20.10;40.90;;;;;;5100250;28;19934;-45
2022/01/08 05:45:57;;;;;;;;;;;20.10;40.90;;;;;;5130926;27;19976;-46
2022/01/08 05:48:24;;;;;;;;;;;20.10;40.90;;;;;;5093475;28;19930;-42
2022/01/08 05:50:51;;;;;;;;;;;20.10;40.90;;;;;;5133943;27;19938;-46
2022/01/08 05:53:18;;;;;;;;;;;20.10;40.90;;;;;;5100144;28;20327;-42
2022/01/08 05:55:45;;;;;;;;;;;20.10;40.90;;;;;;5099684;28;19965;-42
2022/01/08 05:58:12;;;;;;;;;;;20.10;40.90;;;;;;5095801;28;19928;-44
2022/01/08 06:00:38;;;;;;;;;;;20.10;40.90;;;;;;5080893;28;19927;-47
2022/01/08 06:03:07;;;;;;;;;;;20.10;40.90;;;;;;5098767;28;20516;-42
2022/01/08 06:05:34;;;;;;;;;;;20.10;40.90;;;;;;5086654;28;20018;-45
2022/01/08 06:08:00;;;;;;;;;;;20.10;40.90;;;;;;5089914;28;19946;-44
2022/01/08 06:10:27;;;;;;;;;;;20.10;40.90;;;;;;5118170;28;19935;-47
2022/01/08 06:12:54;;;;;;;;;;;20.10;40.90;;;;;;5109479;28;19924;-45
2022/01/08 06:15:21;;;;;;;;;;;20.10;40.90;;;;;;5099508;28;19981;-44
2022/01/08 06:17:48;;;;;;;;;;;20.10;40.90;;;;;;5092149;28;20009;-46
2022/01/08 06:20:16;;;;;;;;;;;20.10;40.90;;;;;;5099565;28;19989;-43
2022/01/08 06:22:43;;;;;;;;;;;20.10;40.90;;;;;;5099436;28;19949;-42
2022/01/08 06:25:10;;;;;;;;;;;20.10;40.90;;;;;;5100519;28;20612;-44
2022/01/08 06:27:40;;;;;;;;;;;20.10;40.90;;;;;;5111921;28;19939;-46
2022/01/08 06:30:09;;;;;;;;;;;20.10;40.90;;;;;;5105812;28;20091;-43
2022/01/08 06:32:36;;;;;;;;;;;20.10;40.90;;;;;;5106926;28;19974;-42
2022/01/08 06:35:03;;;;;;;;;;;20.10;40.90;;;;;;5109133;28;19932;-48
2022/01/08 06:37:31;;;;;;;;;;;20.10;40.90;;;;;;5118241;28;19983;-42
2022/01/08 06:39:58;;;;;;;;;;;20.10;40.90;;;;;;5137270;27;20015;-45
2022/01/08 06:42:25;;;;;;;;;;;20.10;40.90;;;;;;5101722;28;19928;-42
2022/01/08 06:44:52;;;;;;;;;;;20.10;40.90;;;;;;5104740;28;19923;-42
2022/01/08 06:47:30;;;;;;;;;;;20.10;40.90;;;;;;5120145;28;19932;-48
2022/01/08 06:49:57;;;;;;;;;;;20.10;40.90;;;;;;5131442;27;19958;-45
2022/01/08 06:52:23;;;;;;;;;;;20.10;40.90;;;;;;5105215;28;20277;-42
2022/01/08 06:55:04;;;;;;;;;;;20.10;40.90;;;;;;5090711;28;19931;-48
2022/01/08 06:57:33;;;;;;;;;;;20.10;40.90;;;;;;5102839;28;19959;-44
2022/01/08 07:00:02;;;;;;;;;;;20.10;40.90;;;;;;5088273;28;19926;-47
2022/01/08 07:02:29;;;;;;;;;;;20.10;40.90;;;;;;5119715;28;19991;-42
2022/01/08 07:04:56;;;;;;;;;;;20.10;40.90;;;;;;5121267;28;19928;-43
2022/01/08 07:07:23;;;;;;;;;;;20.10;40.90;;;;;;5094603;27;19924;-49
2022/01/08 07:09:51;;;;;;;;;;;20.10;40.90;;;;;;5101800;28;19959;-42
2022/01/08 07:12:19;;;;;;;;;;;20.10;40.90;;;;;;5115238;28;20038;-44
2022/01/08 07:14:46;;;;;;;;;;;20.10;40.80;;;;;;5102697;28;20023;-43
2022/01/08 07:17:13;;;;;;;;;;;20.10;40.80;;;;;;5101582;28;19924;-46
2022/01/08 07:19:40;;;;;;;;;;;20.10;40.80;;;;;;5087349;28;19924;-42
2022/01/08 07:22:07;;;;;;;;;;;20.10;40.90;;;;;;5116851;28;19924;-42
2022/01/08 07:24:34;;;;;;;;;;;20.10;40.80;;;;;;5092904;28;19924;-45
2022/01/08 07:27:01;;;;;;;;;;;20.10;40.90;;;;;;5101089;28;19960;-41
2022/01/08 07:29:29;;;;;;;;;;;20.10;40.80;;;;;;5098792;28;19932;-43
2022/01/08 07:31:55;;;;;;;;;;;20.10;40.90;;;;;;5103628;28;20015;-49
2022/01/08 07:34:25;;;;;;;;;;;20.10;40.80;;;;;;5096124;28;19923;-44
2022/01/08 07:36:52;;;;;;;;;;;20.10;40.80;;;;;;5099589;28;19931;-46
2022/01/08 07:39:19;;;;;;;;;;;20.10;40.80;;;;;;5106079;28;19988;-44
2022/01/08 07:41:46;;;;;;;;;;;20.10;40.80;;;;;;5131013;27;19934;-42
2022/01/08 07:44:13;;;;;;;;;;;20.10;40.80;;;;;;5128479;27;20031;-50
2022/01/08 07:46:41;;;;;;;;;;;20.10;40.80;;;;;;5094176;28;19929;-43
2022/01/08 07:49:09;;;;;;;;;;;20.10;40.80;;;;;;5097339;28;19931;-41
2022/01/08 07:51:35;;;;;;;;;;;20.10;40.80;;;;;;5121952;27;19931;-42
2022/01/08 07:54:02;;;;;;;;;;;20.10;40.80;;;;;;5099183;28;19969;-43
2022/01/08 07:56:29;;;;;;;;;;;20.10;40.80;;;;;;5100016;28;19935;-45
2022/01/08 07:58:56;;;;;;;;;;;20.10;40.80;;;;;;5086272;28;20385;-43
2022/01/08 08:01:23;;;;;;;;;;;20.10;40.80;;;;;;5095658;28;19931;-45
2022/01/08 08:03:51;;;;;;;;;;;20.10;40.80;;;;;;5123350;27;19928;-43
2022/01/08 08:06:18;;;;;;;;;;;20.10;40.80;;;;;;5098355;28;19958;-41
2022/01/08 08:08:46;;;;;;;;;;;20.10;40.80;;;;;;5097778;28;19924;-46
2022/01/08 08:11:13;;;;;;;;;;;20.10;40.80;;;;;;5097164;28;20361;-43
2022/01/08 08:13:40;;;;;;;;;;;20.10;40.80;;;;;;5093971;28;19989;-42
2022/01/08 08:16:07;;;;;;;;;;;20.10;40.80;;;;;;5125259;27;20463;-42
2022/01/08 08:18:34;;;;;;;;;;;20.10;40.80;;;;;;5093482;28;19928;-46
2022/01/08 08:21:03;;;;;;;;;;;20.10;40.80;;;;;;5095665;28;19932;-43
2022/01/08 08:23:30;;;;;;;;;;;20.10;40.80;;;;;;5093136;28;19969;-43
2022/01/08 08:25:58;;;;;;;;;;;20.10;40.70;;;;;;5095709;28;20327;-42
2022/01/08 08:28:27;;;;;;;;;;;20.10;40.70;;;;;;5093462;28;20603;-45
2022/01/08 08:30:54;;;;;;;;;;;20.10;40.70;;;;;;5096359;28;19923;-47
2022/01/08 08:33:21;;;;;;;;;;;20.10;40.70;;;;;;5095066;28;20097;-48
2022/01/08 08:35:47;;;;;;;;;;;20.10;40.70;;;;;;5097720;28;19927;-45
2022/01/08 08:38:16;;;;;;;;;;;20.10;40.70;;;;;;5097151;28;19927;-43
2022/01/08 08:40:42;;;;;;;;;;;20.10;40.70;;;;;;5128112;27;20006;-42
2022/01/08 08:43:09;;;;;;;;;;;20.10;40.70;;;;;;5114699;28;19935;-47
2022/01/08 08:45:36;;;;;;;;;;;20.20;40.80;;;;;;5096930;28;19932;-47
2022/01/08 08:48:03;;;;;;;;;;;20.10;40.70;;;;;;5096692;28;19957;-46
2022/01/08 08:50:30;;;;;;;;;;;20.10;40.70;;;;;;5089381;28;19934;-45
2022/01/08 08:52:56;;;;;;;;;;;20.20;40.80;;;;;;5094975;28;19924;-42
2022/01/08 08:55:25;;;;;;;;;;;20.20;40.80;;;;;;5127429;27;19955;-44
2022/01/08 08:57:51;;;;;;;;;;;20.20;40.80;;;;;;5095076;28;20101;-48
2022/01/08 09:00:19;;;;;;;;;;;20.20;40.80;;;;;;5097671;28;19973;-46
2022/01/08 09:02:45;;;;;;;;;;;20.20;40.90;;;;;;5096219;28;19926;-50
2022/01/08 09:05:12;;;;;;;;;;;20.20;40.90;;;;;;5095221;28;19969;-46
2022/01/08 09:07:39;;;;;;;;;;;20.20;40.90;;;;;;5110041;28;20023;-46
2022/01/08 09:10:09;;;;;;;;;;;20.20;41.00;;;;;;5095748;28;19977;-42
2022/01/08 09:12:37;;;;;;;;;;;20.20;41.00;;;;;;5112367;28;19946;-48
2022/01/08 09:15:04;;;;;;;;;;;20.20;41.10;;;;;;5110043;28;20400;-43
2022/01/08 09:17:31;;;;;;;;;;;20.20;41.10;;;;;;5094702;28;20345;-42
2022/01/08 09:19:58;;;;;;;;;;;20.20;41.20;;;;;;5094835;28;19923;-42
2022/01/08 09:22:25;;;;;;;;;;;20.20;41.20;;;;;;5093605;28;19973;-44
2022/01/08 09:24:54;;;;;;;;;;;20.20;41.30;;;;;;5093623;28;20200;-49
2022/01/08 09:27:21;;;;;;;;;;;20.30;41.30;;;;;;5094837;28;19928;-43
2022/01/08 09:29:49;;;;;;;;;;;20.30;41.30;;;;;;5120754;27;19928;-46
2022/01/08 09:32:17;;;;;;;;;;;20.30;41.40;;;;;;5125954;27;20022;-45
2022/01/08 09:34:44;;;;;;;;;;;20.20;41.40;;;;;;5097142;28;19966;-49
2022/01/08 09:37:11;;;;;;;;;;;20.20;41.40;;;;;;5099245;28;19946;-49
2022/01/08 09:39:39;;;;;;;;;;;20.20;41.40;;;;;;5115843;28;19951;-47
2022/01/08 09:42:07;;;;;;;;;;;20.20;41.40;;;;;;5114781;28;19952;-46
2022/01/08 09:44:35;;;;;;;;;;;20.20;41.40;;;;;;5100058;28;19924;-46
2022/01/08 09:47:04;;;;;;;;;;;20.20;41.40;;;;;;5099889;28;20019;-45
2022/01/08 09:49:30;;;;;;;;;;;20.20;41.40;;;;;;5100279;28;20309;-42
2022/01/08 09:52:00;;;;;;;;;;;20.20;41.40;;;;;;5117964;28;19924;-46
2022/01/08 09:54:27;;;;;;;;;;;20.20;41.40;;;;;;5096096;28;19931;-46
2022/01/08 09:56:54;;;;;;;;;;;20.20;41.40;;;;;;5100285;28;19995;-47
2022/01/08 09:59:21;;;;;;;;;;;20.20;41.40;;;;;;5098758;28;19936;-49
2022/01/08 10:01:52;;;;;;;;;;;20.20;41.40;;;;;;5117327;28;19935;-46
2022/01/08 10:04:24;;;;;;;;;;;20.20;41.40;;;;;;5098639;28;19959;-45
2022/01/08 10:06:51;;;;;;;;;;;20.20;41.40;;;;;;5098515;28;20170;-49
2022/01/08 10:09:18;;;;;;;;;;;20.20;41.40;;;;;;5102259;28;19934;-47
2022/01/08 10:11:48;;;;;;;;;;;20.20;41.40;;;;;;5102352;28;19927;-44
2022/01/08 10:14:27;;;;;;;;;;;20.20;41.50;;;;;;5103005;28;20027;-43
2022/01/08 10:19:41;;;;;;;;;;;20.20;41.50;;;;;;5117017;28;19931;-47
2022/01/08 10:22:15;;;;;;;;;;;20.20;41.50;;;;;;5095120;28;19935;-45
2022/01/08 10:24:42;;;;;;;;;;;20.20;41.50;;;;;;5103736;28;19949;-47
2022/01/08 10:27:08;;;;;;;;;;;20.20;41.50;;;;;;5128724;27;19957;-45
2022/01/08 10:29:35;;;;;;;;;;;20.30;41.50;;;;;;5100905;28;19932;-43
2022/01/08 10:32:02;;;;;;;;;;;20.20;41.50;;;;;;5103258;28;20396;-42
2022/01/08 10:34:30;;;;;;;;;;;20.20;41.50;;;;;;5102253;28;19943;-50
2022/01/08 10:37:02;;;;;;;;;;;20.20;42.10;;;;;;5102904;28;19924;-43
2022/01/08 10:39:29;;;;;;;;;;;20.30;41.60;;;;;;5121936;27;19927;-44
2022/01/08 10:41:57;;;;;;;;;;;20.30;41.50;;;;;;5114506;28;19981;-44
2022/01/08 10:44:24;;;;;;;;;;;20.30;41.50;;;;;;5129481;27;20106;-44
2022/01/08 10:46:55;;;;;;;;;;;20.30;41.60;;;;;;5102774;28;19924;-47
2022/01/08 10:49:27;;;;;;;;;;;20.30;41.60;;;;;;5100549;28;20319;-44
2022/01/08 10:51:56;;;;;;;;;;;20.30;41.60;;;;;;5102659;28;19924;-48
2022/01/08 10:54:24;;;;;;;;;;;20.30;41.60;;;;;;5098468;28;19942;-45
2022/01/08 10:56:51;;;;;;;;;;;20.30;41.60;;;;;;5119623;28;19995;-43
2022/01/08 10:59:19;;;;;;;;;;;20.30;41.60;;;;;;5101530;28;19928;-45
2022/01/08 11:01:52;;;;;;;;;;;20.30;41.60;;;;;;5136786;27;19924;-46
2022/01/08 11:04:19;;;;;;;;;;;20.30;41.60;;;;;;5102813;28;19935;-45
2022/01/08 11:06:54;;;;;;;;;;;20.30;41.60;;;;;;5119939;28;19939;-44
2022/01/08 11:09:21;;;;;;;;;;;20.30;41.60;;;;;;5120885;28;19934;-49
2022/01/08 11:11:50;;;;;;;;;;;20.30;41.60;;;;;;5101442;28;20416;-46
2022/01/08 11:14:44;;;;;;;;;;;20.30;41.60;;;;;;5101817;28;19954;-44
2022/01/08 11:17:09;;;;;;;;;;;20.30;41.60;;;;;;5101008;28;20068;-46
2022/01/08 11:19:36;;;;;;;;;;;20.30;41.60;;;;;;5101246;28;20170;-49
2022/01/08 11:22:03;;;;;;;;;;;20.30;41.60;;;;;;5100910;28;19950;-46
2022/01/08 11:24:31;;;;;;;;;;;20.30;41.60;;;;;;5120231;28;19939;-46
2022/01/08 11:26:59;;;;;;;;;;;20.30;41.60;;;;;;5101036;28;19947;-48
2022/01/08 11:29:26;;;;;;;;;;;20.30;41.60;;;;;;5102544;28;20149;-46
2022/01/08 11:31:55;;;;;;;;;;;20.30;41.60;;;;;;5090354;28;19920;-51
2022/01/08 11:34:23;;;;;;;;;;;20.30;41.60;;;;;;5096873;28;19949;-44
2022/01/08 11:36:50;;;;;;;;;;;20.30;41.60;;;;;;5102838;28;19924;-46
2022/01/08 11:39:17;;;;;;;;;;;20.30;41.60;;;;;;5101672;28;19923;-44
2022/01/08 11:41:48;;;;;;;;;;;20.30;41.60;;;;;;5096519;28;19931;-52
2022/01/08 11:44:16;;;;;;;;;;;20.30;41.60;;;;;;5099931;28;20295;-46
2022/01/08 11:46:43;;;;;;;;;;;20.30;41.60;;;;;;5099439;28;19924;-43
2022/01/08 11:49:10;;;;;;;;;;;20.30;41.60;;;;;;5101869;28;19938;-46
2022/01/08 11:51:37;;;;;;;;;;;20.30;41.60;;;;;;5094943;28;19939;-48
2022/01/08 11:54:06;;;;;;;;;;;20.30;41.60;;;;;;5100837;28;19934;-55
2022/01/08 11:56:34;;;;;;;;;;;20.30;41.60;;;;;;5102319;28;19934;-45
2022/01/08 11:59:04;;;;;;;;;;;20.30;41.60;;;;;;5101612;28;19923;-43
2022/01/08 12:01:33;;;;;;;;;;;20.30;41.60;;;;;;5093472;28;20346;-45
2022/01/08 12:04:00;;;;;;;;;;;20.30;41.70;;;;;;5081668;28;19981;-45
2022/01/08 12:06:35;;;;;;;;;;;20.30;41.70;;;;;;5131253;27;19931;-42
2022/01/08 12:09:18;;;;;;;;;;;20.40;41.80;;;;;;5100656;28;19927;-51
2022/01/08 12:11:52;;;;;;;;;;;20.30;41.70;;;;;;5101832;28;19920;-46
2022/01/08 12:14:20;;;;;;;;;;;20.30;41.70;;;;;;5101735;28;19953;-44
2022/01/08 12:16:49;;;;;;;;;;;20.40;41.80;;;;;;5096288;28;19928;-44
2022/01/08 12:19:27;;;;;;;;;;;20.40;41.80;;;;;;5100526;28;19919;-47
2022/01/08 12:21:54;;;;;;;;;;;20.40;41.80;;;;;;5090120;28;19924;-43
2022/01/08 12:24:34;;;;;;;;;;;20.40;41.80;;;;;;5096152;28;20026;-47
2022/01/08 12:27:01;;;;;;;;;;;20.40;41.80;;;;;;5132690;27;19924;-46
2022/01/08 12:29:37;;;;;;;;;;;20.40;41.80;;;;;;5097874;28;20316;-44
2022/01/08 12:32:28;;;;;;;;;;;20.40;41.80;;;;;;5092555;28;19924;-42
2022/01/08 12:35:02;;;;;;;;;;;20.40;41.80;;;;;;5117612;28;20026;-42
2022/01/08 12:37:35;;;;;;;;;;;20.40;41.80;;;;;;5111741;28;20208;-45
2022/01/08 12:40:02;;;;;;;;;;;20.40;41.90;;;;;;5100318;28;20018;-45
2022/01/08 12:42:33;;;;;;;;;;;20.40;41.90;;;;;;5130453;27;19985;-48
2022/01/08 12:45:01;;;;;;;;;;;20.40;41.90;;;;;;5094199;28;19973;-46
2022/01/08 12:47:43;;;;;;;;;;;20.40;41.90;;;;;;5101385;28;19987;-46
2022/01/08 12:50:20;;;;;;;;;;;20.40;41.90;;;;;;5096618;28;19927;-47
2022/01/08 12:53:06;;;;;;;;;;;20.40;41.90;;;;;;5127933;27;20323;-43
2022/01/08 12:55:33;;;;;;;;;;;20.40;41.90;;;;;;5097113;28;19928;-45
2022/01/08 12:58:00;;;;;;;;;;;20.40;41.90;;;;;;5097851;27;20274;-47
2022/01/08 13:00:27;;;;;;;;;;;20.40;41.90;;;;;;5107864;28;19974;-43
2022/01/08 13:02:55;;;;;;;;;;;20.40;41.90;;;;;;5101065;28;19923;-44
2022/01/08 13:05:22;;;;;;;;;;;20.40;41.90;;;;;;5098000;28;20048;-45
2022/01/08 13:07:49;;;;;;;;;;;20.40;41.90;;;;;;5126921;27;19924;-48
2022/01/08 13:10:16;;;;;;;;;;;20.40;41.90;;;;;;5100220;28;19924;-46
2022/01/08 13:12:43;;;;;;;;;;;20.40;41.90;;;;;;5099539;28;19924;-47
2022/01/08 13:15:11;;;;;;;;;;;20.40;42.00;;;;;;5118131;28;19954;-44
2022/01/08 13:17:38;;;;;;;;;;;20.40;42.00;;;;;;5099604;28;19943;-48
2022/01/08 13:20:08;;;;;;;;;;;20.40;42.00;;;;;;5097364;28;20252;-49
2022/01/08 13:22:35;;;;;;;;;;;20.40;42.00;;;;;;5098951;28;19928;-43
2022/01/08 13:25:01;;;;;;;;;;;20.40;42.00;;;;;;5097822;28;19931;-43
2022/01/08 13:27:28;;;;;;;;;;;20.40;42.00;;;;;;5099958;28;20151;-45
2022/01/08 13:29:56;;;;;;;;;;;20.40;42.00;;;;;;5098662;28;19924;-45
2022/01/08 13:32:23;;;;;;;;;;;20.40;42.00;;;;;;5097789;28;19981;-45
2022/01/08 13:34:50;;;;;;;;;;;20.40;42.10;;;;;;5099279;28;19980;-47
2022/01/08 13:37:18;;;;;;;;;;;20.40;42.00;;;;;;5127388;27;20386;-43
2022/01/08 13:39:46;;;;;;;;;;;20.40;42.10;;;;;;5116880;28;19931;-49
2022/01/08 13:42:19;;;;;;;;;;;20.40;42.10;;;;;;5099106;28;20174;-48
2022/01/08 13:44:46;;;;;;;;;;;20.40;42.10;;;;;;5132345;27;20022;-45
2022/01/08 13:47:33;;;;;;;;;;;20.40;42.10;;;;;;5099314;28;19959;-44
2022/01/08 13:50:01;;;;;;;;;;;20.40;42.10;;;;;;5114863;28;19928;-47
2022/01/08 13:52:36;;;;;;;;;;;20.40;42.10;;;;;;5095805;28;19919;-46
2022/01/08 13:55:11;;;;;;;;;;;20.40;42.10;;;;;;5099416;28;20022;-47
2022/01/08 13:57:38;;;;;;;;;;;20.40;42.10;;;;;;5099889;28;19999;-44
2022/01/08 14:00:15;;;;;;;;;;;20.40;42.10;;;;;;5098602;28;19928;-46
2022/01/08 14:02:42;;;;;;;;;;;20.40;42.20;;;;;;5095996;28;19996;-44
2022/01/08 14:05:09;;;;;;;;;;;20.40;42.10;;;;;;5110648;28;19931;-57
2022/01/08 14:07:38;;;;;;;;;;;20.40;42.10;;;;;;5114567;28;19924;-47
2022/01/08 14:10:05;;;;;;;;;;;20.30;34.70;;;;;;5096862;28;19953;-49
2022/01/08 14:12:32;;;;;;;;;;;20.20;34.50;;;;;;5096531;28;19928;-46
2022/01/08 14:15:03;;;;;;;;;;;20.00;36.20;;;;;;5098732;28;19931;-49
2022/01/08 14:17:30;;;;;;;;;;;19.90;37.50;;;;;;5094265;28;19936;-44
2022/01/08 14:19:58;;;;;;;;;;;19.90;38.30;;;;;;5088442;28;19991;-47
2022/01/08 14:22:24;;;;;;;;;;;19.90;39.30;;;;;;5115831;28;19927;-44
2022/01/08 14:24:53;;;;;;;;;;;19.90;39.50;;;;;;5075771;28;19960;-47
2022/01/08 14:27:22;;;;;;;;;;;19.90;39.70;;;;;;5096773;28;19924;-44
2022/01/08 14:29:49;;;;;;;;;;;19.90;39.90;;;;;;5092083;28;20419;-45
2022/01/08 14:32:17;;;;;;;;;;;19.90;40.10;;;;;;5093662;28;20170;-45
2022/01/08 14:34:44;;;;;;;;;;;19.90;40.30;;;;;;5114203;28;19946;-45
2022/01/08 14:37:16;;;;;;;;;;;19.90;40.40;;;;;;5094364;28;19924;-47
2022/01/08 14:39:45;;;;;;;;;;;20.00;40.60;;;;;;5092803;28;19923;-48
2022/01/08 14:42:14;;;;;;;;;;;20.00;40.60;;;;;;5092302;28;19928;-45